Time;durP1;ratioP1;P1;durP2;ratioP2;P2;SDS_P1;SDS_P2;PMS_P1;PMS_P2;Temp;Humidity;BMP_temperature;BMP_pressure;BME280_temperature;BME280_humidity;BME280_pressure;Samples;Min_cycle;Max_cycle;Signal;HPM_P1;HPM_P2
2022/07/14 00:02:23;;;;;;;3.55;1.60;;;;;;;23.10;49.32;100418.09;5052840;28;20265;-75
2022/07/14 00:04:51;;;;;;;2.10;1.52;;;;;;;22.98;49.64;100419.34;5053324;28;20224;-75
2022/07/14 00:07:18;;;;;;;1.30;1.30;;;;;;;23.07;49.33;100419.06;5053757;28;20199;-75
2022/07/14 00:09:45;;;;;;;2.17;1.52;;;;;;;23.20;49.16;100419.53;5053377;28;20198;-75
2022/07/14 00:12:12;;;;;;;1.65;1.10;;;;;;;23.08;49.06;100415.50;5053421;28;20778;-75
2022/07/14 00:14:39;;;;;;;1.52;1.42;;;;;;;23.13;49.21;100416.22;5053069;28;20203;-75
2022/07/14 00:17:06;;;;;;;4.85;1.55;;;;;;;23.17;49.27;100414.34;5053658;28;20202;-75
2022/07/14 00:19:32;;;;;;;3.97;1.30;;;;;;;23.13;49.12;100413.59;5018124;28;20203;-75
2022/07/14 00:22:01;;;;;;;1.45;1.35;;;;;;;23.12;49.34;100410.97;5053529;28;20200;-75
2022/07/14 00:24:28;;;;;;;2.03;1.58;;;;;;;22.76;49.50;100397.09;5037770;28;20675;-75
2022/07/14 00:26:54;;;;;;;1.40;1.30;;;;;;;22.63;50.00;100407.13;5017810;28;20257;-75
2022/07/14 00:29:21;;;;;;;2.92;1.50;;;;;;;22.56;50.42;100404.72;5053092;28;20222;-75
2022/07/14 00:31:48;;;;;;;1.65;1.55;;;;;;;22.53;50.55;100407.44;5053364;28;20722;-75
2022/07/14 00:34:15;;;;;;;3.42;1.60;;;;;;;22.54;50.57;100412.69;5053413;28;20191;-75
2022/07/14 00:36:42;;;;;;;6.32;1.40;;;;;;;22.52;50.46;100408.34;5052907;28;20203;-75
2022/07/14 00:39:10;;;;;;;2.65;1.20;;;;;;;22.29;50.83;100379.94;5052234;28;20200;-75
2022/07/14 00:41:37;;;;;;;2.45;1.67;;;;;;;22.47;50.73;100412.91;5052326;28;20214;-75
2022/07/14 00:44:04;;;;;;;3.75;1.60;;;;;;;22.37;50.97;100398.19;5052882;28;20195;-75
2022/07/14 00:46:31;;;;;;;2.58;1.33;;;;;;;22.55;50.74;100410.91;5052683;28;20199;-75
2022/07/14 00:48:58;;;;;;;1.63;1.50;;;;;;;22.46;50.78;100404.13;5052671;28;20222;-75
2022/07/14 00:51:25;;;;;;;2.25;1.60;;;;;;;22.57;50.57;100417.03;5052238;28;20230;-75
2022/07/14 00:53:55;;;;;;;4.18;1.60;;;;;;;22.61;51.04;100418.66;5052941;28;20242;-75
2022/07/14 00:56:23;;;;;;;1.50;1.40;;;;;;;22.47;50.68;100410.28;5051673;28;20199;-75
2022/07/14 00:58:50;;;;;;;3.00;1.45;;;;;;;22.48;51.13;100414.63;5017706;28;20203;-75
2022/07/14 01:01:17;;;;;;;3.17;1.55;;;;;;;22.46;51.31;100419.97;5052288;28;20204;-75
2022/07/14 01:03:44;;;;;;;1.70;1.60;;;;;;;22.42;51.37;100418.31;5052978;28;20200;-75
2022/07/14 01:06:11;;;;;;;2.15;1.52;;;;;;;22.35;51.53;100415.88;5052482;28;20209;-75
2022/07/14 01:08:37;;;;;;;4.80;1.42;;;;;;;22.34;51.33;100395.66;5052634;28;20203;-75
2022/07/14 01:11:07;;;;;;;4.53;1.50;;;;;;;22.33;51.53;100417.72;5052525;28;20208;-75
2022/07/14 01:13:36;;;;;;;1.50;1.40;;;;;;;22.14;51.67;100389.16;5001235;28;20206;-75
2022/07/14 01:16:04;;;;;;;3.35;1.60;;;;;;;22.06;52.05;100392.91;5052386;28;20672;-75
2022/07/14 01:18:31;;;;;;;2.80;1.45;;;;;;;22.25;52.29;100415.28;5052397;28;20729;-75
2022/07/14 01:20:58;;;;;;;7.68;1.50;;;;;;;22.24;52.09;100395.91;5013684;28;20207;-75
2022/07/14 01:23:26;;;;;;;5.15;1.75;;;;;;;22.32;52.27;100408.03;5032442;28;20232;-75
2022/07/14 01:25:53;;;;;;;1.52;1.40;;;;;;;22.32;52.83;100418.63;5046781;28;20194;-75
2022/07/14 01:28:20;;;;;;;2.65;1.40;;;;;;;22.31;52.22;100407.19;5066892;28;20201;-75
2022/07/14 01:30:47;;;;;;;1.63;1.52;;;;;;;22.27;52.58;100418.72;5072084;28;20199;-75
2022/07/14 01:33:13;;;;;;;3.35;1.70;;;;;;;22.21;52.66;100417.13;5072178;28;20230;-75
2022/07/14 01:35:40;;;;;;;1.55;1.45;;;;;;;22.18;52.61;100393.44;5069069;28;20576;-75
2022/07/14 01:38:07;;;;;;;1.70;1.60;;;;;;;22.22;52.57;100404.81;5013658;28;20189;-76
2022/07/14 01:40:36;;;;;;;1.42;1.33;;;;;;;21.97;53.30;100409.88;5013527;28;20574;-75
2022/07/14 01:43:03;;;;;;;2.00;1.80;;;;;;;21.94;53.34;100372.97;5032173;28;20200;-75
2022/07/14 01:45:30;;;;;;;1.40;1.30;;;;;;;22.16;53.15;100411.09;5049618;28;20276;-75
2022/07/14 01:47:57;;;;;;;6.75;1.50;;;;;;;22.07;53.97;100408.72;5051948;28;20203;-75
2022/07/14 01:50:23;;;;;;;1.80;1.70;;;;;;;22.12;53.33;100404.16;5044853;28;20195;-75
2022/07/14 01:52:50;;;;;;;1.80;1.70;;;;;;;22.08;53.20;100404.31;5050990;28;20723;-74
2022/07/14 01:55:17;;;;;;;2.45;1.60;;;;;;;22.01;54.32;100406.22;5051899;28;20196;-75
2022/07/14 01:57:45;;;;;;;2.97;1.58;;;;;;;22.04;54.13;100400.88;5051008;28;20208;-75
2022/07/14 02:00:13;;;;;;;8.57;1.60;;;;;;;21.93;54.85;100407.34;5051104;28;20703;-75
2022/07/14 02:02:40;;;;;;;4.43;1.60;;;;;;;21.90;55.20;100397.75;5051017;28;20195;-76
2022/07/14 02:05:09;;;;;;;3.60;2.08;;;;;;;21.90;55.48;100405.66;5051300;28;20644;-75
2022/07/14 02:07:36;;;;;;;1.95;1.65;;;;;;;21.69;55.94;100403.50;5051617;28;20231;-75
2022/07/14 02:12:50;;;;;;;5.22;2.00;;;;;;;21.66;57.32;100407.09;5051510;28;20230;-75
2022/07/14 02:15:17;;;;;;;2.08;1.88;;;;;;;21.74;58.90;100409.56;5051403;28;20210;-75
2022/07/14 02:17:44;;;;;;;3.47;2.03;;;;;;;21.63;82.98;100414.22;5050836;28;20192;-75
2022/07/14 02:20:11;;;;;;;2.60;2.10;;;;;;;21.57;89.15;100417.03;5051166;28;20195;-74
2022/07/14 02:22:39;;;;;;;4.75;1.95;;;;;;;21.46;89.52;100403.22;5051038;28;20195;-75
2022/07/14 02:25:07;;;;;;;3.20;1.90;;;;;;;21.40;88.63;100412.16;5050962;28;20214;-74
2022/07/14 02:27:34;;;;;;;2.40;2.00;;;;;;;21.26;89.68;100420.38;5049415;28;20877;-74
2022/07/14 02:30:03;;;;;;;2.55;2.15;;;;;;;21.23;92.40;100435.41;5051104;28;20195;-75
2022/07/14 02:32:31;;;;;;;5.38;2.05;;;;;;;20.97;99.49;100406.09;5051011;28;20238;-75
2022/07/14 02:34:58;;;;;;;10.57;2.45;;;;;;;20.99;100.00;100428.91;5016463;28;20212;-74
2022/07/14 02:37:25;;;;;;;2.35;2.15;;;;;;;20.90;100.00;100429.09;5015728;28;20295;-74
2022/07/14 02:39:52;;;;;;;2.58;2.17;;;;;;;20.87;100.00;100426.50;5050644;28;20192;-75
2022/07/14 02:42:18;;;;;;;7.00;2.53;;;;;;;20.83;100.00;100426.63;5050487;28;20195;-75
2022/07/14 02:44:46;;;;;;;6.68;2.17;;;;;;;20.73;100.00;100431.19;5051033;28;20207;-75
2022/07/14 02:47:14;;;;;;;3.05;2.47;;;;;;;20.81;100.00;100428.41;5051056;28;20203;-75
2022/07/14 02:49:41;;;;;;;3.33;2.50;;;;;;;20.72;100.00;100438.28;5047820;28;20219;-75
2022/07/14 02:52:08;;;;;;;8.73;2.83;;;;;;;20.67;100.00;100428.72;5049559;28;20219;-75
2022/07/14 02:54:35;;;;;;;5.50;3.20;;;;;;;20.55;100.00;100416.66;5015379;28;20223;-75
2022/07/14 02:57:02;;;;;;;15.45;3.60;;;;;;;20.58;100.00;100436.81;5050970;28;20204;-75
2022/07/14 02:59:29;;;;;;;7.93;4.53;;;;;;;20.51;100.00;100437.84;5049657;28;20206;-75
2022/07/14 03:01:56;;;;;;;5.80;3.75;;;;;;;20.59;100.00;100438.53;5051035;28;20204;-75
2022/07/14 03:04:24;;;;;;;8.43;3.97;;;;;;;20.63;100.00;100443.72;5050293;28;20202;-75
2022/07/14 03:06:51;;;;;;;9.57;3.90;;;;;;;20.59;100.00;100447.31;5050816;28;20207;-76
2022/07/14 03:09:17;;;;;;;8.98;4.43;;;;;;;20.61;100.00;100450.78;5050592;28;20199;-74
2022/07/14 03:11:44;;;;;;;8.43;3.83;;;;;;;20.67;100.00;100455.06;5052203;28;20203;-75
2022/07/14 03:14:11;;;;;;;9.85;3.88;;;;;;;20.64;100.00;100460.41;5053663;28;20211;-75
2022/07/14 03:16:38;;;;;;;9.35;4.32;;;;;;;20.70;100.00;100457.63;5054575;28;20204;-74
2022/07/14 03:19:05;;;;;;;7.75;3.42;;;;;;;20.65;100.00;100446.34;5054634;28;20218;-74
2022/07/14 03:21:33;;;;;;;7.13;3.90;;;;;;;20.70;100.00;100444.44;5054627;28;20303;-74
2022/07/14 03:24:00;;;;;;;11.32;4.45;;;;;;;20.86;100.00;100458.19;5054736;28;20203;-74
2022/07/14 03:26:28;;;;;;;7.40;4.15;;;;;;;21.02;100.00;100447.28;5053958;28;20588;-75
2022/07/14 03:28:55;;;;;;;11.45;4.43;;;;;;;21.60;100.00;100461.81;5035923;28;20207;-75
2022/07/14 03:31:22;;;;;;;8.05;3.53;;;;;;;22.03;97.13;100472.22;5053853;28;20188;-74
2022/07/14 03:33:49;;;;;;;7.50;3.90;;;;;;;22.74;92.11;100472.94;5054405;28;20234;-75
2022/07/14 03:36:16;;;;;;;5.68;3.47;;;;;;;23.35;85.99;100481.72;5053732;28;20598;-75
2022/07/14 03:38:44;;;;;;;6.35;3.80;;;;;;;23.63;82.27;100466.72;5054181;28;20198;-75
2022/07/14 03:41:11;;;;;;;5.82;3.00;;;;;;;24.08;78.77;100491.69;5054530;28;20211;-75
2022/07/14 03:43:38;;;;;;;4.40;2.78;;;;;;;24.35;74.50;100489.06;5053941;28;20694;-75
2022/07/14 03:46:06;;;;;;;9.18;3.47;;;;;;;24.50;72.15;100491.19;5018991;28;20207;-75
2022/07/14 03:48:34;;;;;;;6.68;3.25;;;;;;;25.46;69.35;100493.75;5016486;28;20260;-75
2022/07/14 03:51:01;;;;;;;6.53;3.55;;;;;;;26.12;65.68;100506.13;5053546;28;20196;-75
2022/07/14 03:53:29;;;;;;;4.68;3.60;;;;;;;26.88;62.38;100503.72;5052283;28;20231;-75
2022/07/14 03:55:58;;;;;;;5.05;3.47;;;;;;;27.42;58.14;100508.28;5053265;28;20199;-76
2022/07/14 03:58:25;;;;;;;7.32;3.92;;;;;;;27.35;57.12;100508.63;5034468;28;20214;-75
2022/07/14 04:00:53;;;;;;;9.70;3.80;;;;;;;27.66;56.26;100521.38;5053834;28;20683;-75
2022/07/14 04:03:19;;;;;;;5.45;3.67;;;;;;;28.33;54.68;100518.94;5053892;28;20215;-76
2022/07/14 04:05:46;;;;;;;10.00;4.05;;;;;;;28.62;51.41;100494.28;5059302;28;20210;-75
2022/07/14 04:08:14;;;;;;;10.65;4.82;;;;;;;29.07;49.90;100490.13;5016995;28;20676;-75
2022/07/14 04:10:41;;;;;;;11.90;5.65;;;;;;;29.61;47.67;100504.94;5053575;28;20198;-75
2022/07/14 04:13:09;;;;;;;10.75;5.65;;;;;;;30.15;46.71;100517.78;5053573;28;20226;-76
2022/07/14 04:15:38;;;;;;;11.85;5.68;;;;;;;30.52;44.82;100519.19;5015370;28;20209;-76
2022/07/14 04:18:05;;;;;;;11.65;4.97;;;;;;;30.37;43.03;100520.94;5053109;28;20195;-74
2022/07/14 04:20:32;;;;;;;16.13;5.40;;;;;;;30.94;42.48;100519.22;5053497;28;20194;-75
2022/07/14 04:22:58;;;;;;;9.05;4.25;;;;;;;31.32;41.32;100527.53;5017741;28;20203;-75
2022/07/14 04:25:25;;;;;;;8.98;4.13;;;;;;;31.17;39.81;100516.97;5053052;28;20199;-75
2022/07/14 04:27:52;;;;;;;8.73;3.47;;;;;;;31.30;39.19;100528.63;5053197;28;20202;-74
2022/07/14 04:30:20;;;;;;;5.82;3.38;;;;;;;31.46;40.03;100515.97;5017897;28;20293;-74
2022/07/14 04:32:47;;;;;;;4.60;2.65;;;;;;;32.09;37.93;100547.63;5053112;28;20718;-73
2022/07/14 04:35:15;;;;;;;4.82;2.20;;;;;;;32.10;36.14;100538.63;5017928;28;20207;-75
2022/07/14 04:37:42;;;;;;;2.60;2.00;;;;;;;32.30;35.04;100541.69;5018370;28;20234;-74
2022/07/14 04:40:10;;;;;;;4.60;2.05;;;;;;;32.48;34.21;100528.84;5052494;28;20282;-74
2022/07/14 04:42:36;;;;;;;2.40;1.38;;;;;;;32.84;33.54;100530.81;5053150;28;20190;-75
2022/07/14 04:45:04;;;;;;;10.25;2.05;;;;;;;32.90;34.55;100541.13;5052879;28;20195;-76
2022/07/14 04:47:32;;;;;;;4.13;1.92;;;;;;;32.92;33.70;100537.41;5018007;28;20206;-77
2022/07/14 04:52:47;;;;;;;3.65;1.80;;;;;;;32.44;34.30;100541.59;5052438;28;20230;-75
2022/07/14 04:55:14;;;;;;;4.88;1.75;;;;;;;32.06;34.12;100542.47;5052285;28;20284;-75
2022/07/14 04:57:41;;;;;;;9.25;2.40;;;;;;;32.56;33.89;100545.28;5052913;28;20257;-75
2022/07/14 05:00:10;;;;;;;5.68;2.10;;;;;;;32.49;34.10;100556.56;5049826;28;20199;-75
2022/07/14 05:02:38;;;;;;;6.97;1.60;;;;;;;32.23;33.26;100555.63;5052073;28;20203;-76
2022/07/14 05:05:06;;;;;;;6.82;1.70;;;;;;;31.40;34.76;100556.56;5050172;28;20204;-76
2022/07/14 05:07:34;;;;;;;1.85;1.33;;;;;;;31.14;35.43;100552.00;5050814;28;20214;-78
2022/07/14 05:10:01;;;;;;;4.82;1.95;;;;;;;30.39;35.44;100536.91;5051904;28;20293;-77
2022/07/14 05:12:27;;;;;;;7.40;2.95;;;;;;;30.30;36.57;100558.84;5055132;28;20229;-77
2022/07/14 05:14:54;;;;;;;3.45;2.15;;;;;;;30.64;35.70;100557.75;5054682;28;20203;-75
2022/07/14 05:17:21;;;;;;;4.03;1.90;;;;;;;30.77;35.96;100564.94;5054964;28;20282;-74
2022/07/14 05:19:51;;;;;;;3.85;1.70;;;;;;;30.69;35.65;100572.56;5052354;28;20208;-76
2022/07/14 05:22:18;;;;;;;4.70;2.00;;;;;;;31.28;35.51;100568.06;5052298;28;20203;-75
2022/07/14 05:24:45;;;;;;;5.60;2.00;;;;;;;31.15;35.28;100567.09;5032976;28;20256;-73
2022/07/14 05:27:12;;;;;;;5.38;1.83;;;;;;;31.80;34.34;100569.16;5051729;28;20285;-74
2022/07/14 05:29:39;;;;;;;2.42;1.45;;;;;;;31.53;33.86;100528.06;5051764;28;20199;-76
2022/07/14 05:32:07;;;;;;;2.20;1.55;;;;;;;31.43;34.32;100559.91;5052015;28;20282;-74
2022/07/14 05:34:34;;;;;;;1.73;1.63;;;;;;;30.98;34.19;100558.28;5051322;28;20325;-74
2022/07/14 05:37:02;;;;;;;4.03;1.73;;;;;;;30.60;35.35;100550.84;5051707;28;20199;-74
2022/07/14 05:39:29;;;;;;;1.77;1.50;;;;;;;30.29;35.67;100560.66;5051280;28;20340;-75
2022/07/14 05:41:56;;;;;;;1.67;1.58;;;;;;;30.23;35.27;100565.50;5051468;28;20202;-75
2022/07/14 05:44:23;;;;;;;1.58;1.45;;;;;;;29.76;36.29;100568.19;5050887;28;20749;-76
2022/07/14 05:46:50;;;;;;;1.67;1.55;;;;;;;30.17;36.45;100571.22;5050313;28;20210;-75
2022/07/14 05:49:17;;;;;;;1.73;1.60;;;;;;;30.92;36.02;100568.50;5050901;28;20215;-75
2022/07/14 05:51:43;;;;;;;2.88;1.60;;;;;;;31.42;35.79;100568.06;5032134;28;20203;-76
2022/07/14 05:54:12;;;;;;;6.32;1.85;;;;;;;31.72;35.16;100574.16;5051428;28;20244;-77
2022/07/14 05:56:39;;;;;;;3.40;1.80;;;;;;;31.62;35.20;100548.91;5033145;28;20698;-76
2022/07/14 05:59:06;;;;;;;2.50;2.30;;;;;;;31.15;35.53;100561.72;5051381;28;20203;-76
2022/07/14 06:01:33;;;;;;;5.22;2.42;;;;;;;30.61;35.97;100548.06;5051520;28;20793;-76
2022/07/14 06:04:00;;;;;;;3.90;1.85;;;;;;;30.24;36.33;100543.16;5051112;28;20599;-76
2022/07/14 06:06:27;;;;;;;2.35;1.85;;;;;;;30.16;36.67;100566.81;5056789;28;20214;-76
2022/07/14 06:08:54;;;;;;;6.45;1.92;;;;;;;29.77;37.76;100551.22;5050712;28;20202;-76
2022/07/14 06:11:22;;;;;;;2.53;1.83;;;;;;;30.13;37.23;100551.81;5053097;28;20211;-77
2022/07/14 06:13:49;;;;;;;3.63;1.80;;;;;;;29.94;37.28;100557.34;5033072;28;20229;-77
2022/07/14 06:16:16;;;;;;;2.88;2.08;;;;;;;29.54;38.75;100531.13;5051061;28;20199;-74
2022/07/14 06:18:42;;;;;;;4.63;1.75;;;;;;;29.88;38.93;100562.19;5051087;28;20567;-75
2022/07/14 06:21:10;;;;;;;2.17;1.98;;;;;;;29.56;41.85;100566.66;5051168;28;20195;-76
2022/07/14 06:23:37;;;;;;;3.95;2.03;;;;;;;29.15;41.45;100534.16;5049598;28;20213;-78
2022/07/14 06:26:09;;;;;;;7.60;1.98;;;;;;;29.26;42.00;100557.59;5016181;28;20206;-76
2022/07/14 06:28:37;;;;;;;8.25;2.13;;;;;;;28.73;42.92;100558.66;5015769;28;20231;-77
2022/07/14 06:31:04;;;;;;;4.13;1.77;;;;;;;28.42;43.40;100530.00;5031680;28;20195;-75
2022/07/14 06:33:31;;;;;;;3.72;1.92;;;;;;;28.30;43.38;100554.63;5050745;28;20246;-75
2022/07/14 06:35:58;;;;;;;1.80;1.70;;;;;;;28.42;44.08;100553.16;5050955;28;20202;-74
2022/07/14 06:38:24;;;;;;;5.43;1.83;;;;;;;27.91;43.95;100543.25;5050929;28;20583;-74
2022/07/14 06:40:51;;;;;;;4.05;1.60;;;;;;;27.28;44.14;100542.69;5051065;28;20194;-74
2022/07/14 06:43:18;;;;;;;8.63;2.08;;;;;;;27.59;43.70;100548.34;5050778;28;20206;-76
2022/07/14 06:45:46;;;;;;;3.70;2.05;;;;;;;27.39;45.35;100531.53;5050949;28;20556;-75
2022/07/14 06:48:13;;;;;;;5.40;1.85;;;;;;;27.24;45.19;100554.41;5050411;28;20206;-75
2022/07/14 06:50:40;;;;;;;1.98;1.88;;;;;;;27.01;45.35;100542.13;5050515;28;20202;-75
2022/07/14 06:53:07;;;;;;;4.43;2.15;;;;;;;27.16;45.77;100542.38;5050081;28;20227;-75
2022/07/14 06:55:34;;;;;;;2.95;1.75;;;;;;;27.10;44.93;100536.41;5031971;28;20191;-74
2022/07/14 06:58:01;;;;;;;5.65;2.38;;;;;;;26.96;44.51;100516.69;5015287;28;20195;-76
2022/07/14 07:00:28;;;;;;;2.60;2.03;;;;;;;26.95;44.90;100539.75;5031322;28;20207;-76
2022/07/14 07:02:57;;;;;;;3.92;2.05;;;;;;;27.24;45.51;100530.44;5050366;28;20230;-76
2022/07/14 07:08:07;;;;;;;2.35;1.92;;;;;;;27.34;46.99;100544.19;4966339;28;20245;-75
2022/07/14 07:10:40;;;;;;;8.73;1.80;;;;;;;27.52;46.05;100544.22;5007961;28;20274;-74
2022/07/14 07:13:07;;;;;;;4.03;1.70;;;;;;;27.75;46.45;100548.47;5007802;28;20275;-75
2022/07/14 07:15:37;;;;;;;6.05;2.00;;;;;;;27.96;46.00;100550.09;5007986;28;20204;-77
2022/07/14 07:18:06;;;;;;;9.57;3.22;;;;;;;27.88;46.23;100538.06;5008006;28;20200;-75
2022/07/14 07:20:34;;;;;;;5.25;1.70;;;;;;;27.81;43.75;100539.31;5007896;28;20223;-76
2022/07/14 07:23:01;;;;;;;2.15;2.00;;;;;;;27.62;44.41;100539.31;5008022;28;20201;-76
2022/07/14 07:25:28;;;;;;;1.50;1.40;;;;;;;27.76;43.14;100536.84;5007764;28;20204;-76
2022/07/14 07:27:54;;;;;;;2.92;1.58;;;;;;;27.86;43.76;100526.63;5008152;28;20201;-75
2022/07/14 07:30:21;;;;;;;4.07;1.55;;;;;;;27.79;43.52;100526.03;5008088;28;20204;-75
2022/07/14 07:32:48;;;;;;;3.00;1.60;;;;;;;27.97;41.59;100535.81;5008233;28;20292;-74
2022/07/14 07:35:16;;;;;;;3.78;1.83;;;;;;;27.93;42.16;100534.22;5007793;28;20224;-77
2022/07/14 07:37:43;;;;;;;2.08;1.75;;;;;;;27.70;43.18;100531.81;5008067;28;20692;-77
2022/07/14 07:40:11;;;;;;;6.10;1.60;;;;;;;27.85;43.41;100522.22;5008099;28;20193;-75
2022/07/14 07:42:38;;;;;;;1.40;1.30;;;;;;;28.24;42.64;100538.06;4959787;28;20300;-75
2022/07/14 07:45:06;;;;;;;3.83;1.60;;;;;;;28.32;43.13;100534.09;5024576;28;20207;-77
2022/07/14 07:47:33;;;;;;;3.55;1.58;;;;;;;28.18;42.75;100527.72;5049682;28;20202;-75
2022/07/14 07:50:01;;;;;;;2.08;1.42;;;;;;;27.90;42.01;100513.06;5049657;28;20618;-77
2022/07/14 07:52:29;;;;;;;3.40;1.45;;;;;;;28.12;40.94;100533.34;5049967;28;20720;-76
2022/07/14 07:54:56;;;;;;;3.03;1.63;;;;;;;28.13;41.67;100532.41;5050026;28;20241;-76
2022/07/14 07:57:23;;;;;;;3.53;1.60;;;;;;;28.08;42.81;100520.16;5059343;28;20211;-75
2022/07/14 07:59:50;;;;;;;1.42;1.35;;;;;;;28.20;42.23;100528.50;5072565;28;20201;-76
2022/07/14 08:02:17;;;;;;;3.83;1.88;;;;;;;28.46;41.67;100515.56;5073100;28;20252;-76
2022/07/14 08:04:44;;;;;;;3.30;1.60;;;;;;;28.52;41.09;100514.38;5073279;28;20203;-76
2022/07/14 08:07:11;;;;;;;1.85;1.65;;;;;;;28.64;40.54;100511.09;5026784;28;20191;-76
2022/07/14 08:09:39;;;;;;;4.78;1.50;;;;;;;28.68;39.79;100506.47;5041053;28;20208;-74
2022/07/14 08:12:06;;;;;;;3.13;1.92;;;;;;;28.65;40.26;100510.13;5047888;28;20207;-75
2022/07/14 08:14:51;;;;;;;5.57;1.67;;;;;;;28.84;39.29;100502.91;5053228;28;20230;-75
2022/07/14 08:17:20;;;;;;;2.60;1.80;;;;;;;28.83;40.19;100500.31;5041541;28;20261;-75
2022/07/14 08:19:47;;;;;;;1.98;1.60;;;;;;;28.82;39.96;100507.47;5053251;28;20202;-75
2022/07/14 08:22:14;;;;;;;1.73;1.25;;;;;;;28.96;41.16;100502.25;5053028;28;20192;-76
2022/07/14 08:24:43;;;;;;;7.38;1.98;;;;;;;29.02;39.86;100504.59;5052446;28;20234;-76
2022/07/14 08:27:09;;;;;;;1.88;1.75;;;;;;;29.00;38.41;100500.28;5056987;28;20202;-75
2022/07/14 08:29:36;;;;;;;3.22;2.30;;;;;;;29.02;39.81;100499.25;5053452;28;20202;-76
2022/07/14 08:32:03;;;;;;;3.20;1.98;;;;;;;28.98;37.27;100505.69;5055462;28;20210;-75
2022/07/14 08:34:30;;;;;;;2.17;2.05;;;;;;;28.68;37.22;100491.28;5017567;28;20250;-76
2022/07/14 08:36:59;;;;;;;2.03;1.92;;;;;;;29.00;38.05;100498.44;5052941;28;20283;-75
2022/07/14 08:39:26;;;;;;;2.38;1.83;;;;;;;29.08;36.86;100497.16;5049458;28;20294;-75
2022/07/14 08:41:56;;;;;;;2.97;2.03;;;;;;;29.24;35.73;100498.06;5050077;28;20207;-75
2022/07/14 08:44:24;;;;;;;1.90;1.80;;;;;;;29.51;37.22;100499.22;5049848;28;20573;-76
2022/07/14 08:46:51;;;;;;;2.63;1.83;;;;;;;29.36;36.77;100500.09;5055248;28;20197;-77
2022/07/14 08:49:19;;;;;;;2.55;1.80;;;;;;;29.19;36.41;100476.06;5052550;28;20203;-76
2022/07/14 08:51:46;;;;;;;2.75;1.70;;;;;;;29.51;36.93;100488.53;5052936;28;20214;-76
2022/07/14 08:54:13;;;;;;;2.30;1.50;;;;;;;29.53;35.92;100481.31;5052558;28;20227;-77
2022/07/14 08:56:40;;;;;;;1.60;1.45;;;;;;;29.50;35.65;100498.34;5052736;28;20202;-78
2022/07/14 08:59:10;;;;;;;4.25;1.85;;;;;;;29.52;35.86;100492.94;5052759;28;20207;-78
2022/07/14 09:01:37;;;;;;;7.43;1.40;;;;;;;29.45;36.77;100479.06;5052667;28;20198;-78
2022/07/14 09:04:04;;;;;;;2.70;1.88;;;;;;;29.74;36.06;100490.75;5033804;28;20206;-77
2022/07/14 09:06:52;;;;;;;7.35;1.55;;;;;;;29.32;38.06;100482.50;5052678;28;20718;-78
2022/07/14 09:09:22;;;;;;;2.25;1.70;;;;;;;29.64;38.82;100494.06;5000083;28;20250;-75
2022/07/14 09:11:58;;;;;;;1.60;1.52;;;;;;;29.33;38.04;100454.81;5044007;28;20268;-74
2022/07/14 09:14:28;;;;;;;1.90;1.60;;;;;;;29.44;39.17;100473.78;5051361;28;20219;-77
2022/07/14 09:17:14;;;;;;;1.90;1.80;;;;;;;29.59;39.59;100475.59;5046004;28;20199;-77
2022/07/14 09:20:03;;;;;;;1.92;1.30;;;;;;;29.95;37.86;100478.84;5052143;28;20206;-78
2022/07/14 09:22:32;;;;;;;6.00;1.38;;;;;;;29.62;36.41;100486.09;5052328;28;20195;-77
2022/07/14 09:24:59;;;;;;;3.70;1.52;;;;;;;29.80;36.37;100474.34;5052096;28;20209;-77
2022/07/14 09:27:26;;;;;;;3.25;1.52;;;;;;;29.88;35.84;100488.19;5013707;28;20219;-78
2022/07/14 09:29:56;;;;;;;3.15;1.50;;;;;;;29.86;35.70;100479.38;5048371;28;20207;-77
2022/07/14 09:32:45;;;;;;;3.38;1.27;;;;;;;30.01;33.84;100477.63;5051947;28;20268;-78
2022/07/14 09:35:12;;;;;;;1.23;1.23;;;;;;;30.04;34.10;100476.59;5051338;28;20227;-76
2022/07/14 09:37:40;;;;;;;1.70;1.60;;;;;;;30.07;33.91;100477.28;5048897;28;20215;-76
2022/07/14 09:40:11;;;;;;;3.50;1.30;;;;;;;30.18;33.37;100464.09;5053497;28;20203;-77
2022/07/14 09:42:50;;;;;;;2.08;1.23;;;;;;;30.15;33.29;100452.72;5052252;28;20218;-78
2022/07/14 09:45:20;;;;;;;5.78;1.30;;;;;;;30.06;32.44;100454.16;5051935;28;20233;-77
2022/07/14 09:48:02;;;;;;;2.05;1.50;;;;;;;30.15;32.68;100464.28;5052025;28;20198;-76
2022/07/14 09:50:43;;;;;;;2.30;1.10;;;;;;;29.78;32.97;100460.22;5051824;28;20202;-75
2022/07/14 09:53:18;;;;;;;3.13;1.40;;;;;;;30.10;32.97;100457.50;5043375;28;20596;-78
2022/07/14 09:55:52;;;;;;;2.00;1.20;;;;;;;30.24;32.24;100454.84;5051107;28;20229;-77
2022/07/14 09:58:19;;;;;;;1.30;1.30;;;;;;;30.25;33.27;100454.75;5051066;28;20647;-77
2022/07/14 10:00:55;;;;;;;1.30;1.30;;;;;;;29.85;33.04;100458.94;5028359;28;20570;-76
2022/07/14 10:03:22;;;;;;;2.20;1.40;;;;;;;29.86;33.38;100452.63;5050897;28;20230;-75
2022/07/14 10:05:50;;;;;;;2.30;1.38;;;;;;;30.20;33.32;100456.00;5050688;28;20635;-75
2022/07/14 10:08:19;;;;;;;1.10;1.10;;;;;;;30.16;33.09;100427.69;5050825;28;20198;-75
2022/07/14 10:10:46;;;;;;;8.63;1.70;;;;;;;30.28;33.33;100453.72;5050644;28;20199;-75
2022/07/14 10:13:17;;;;;;;1.38;1.27;;;;;;;30.09;33.49;100447.75;5050811;28;20733;-75
2022/07/14 10:15:44;;;;;;;1.90;1.45;;;;;;;30.14;34.39;100437.66;5038868;28;20258;-75
2022/07/14 10:18:13;;;;;;;2.40;1.05;;;;;;;30.01;34.11;100440.16;5048553;28;20206;-72
2022/07/14 10:20:41;;;;;;;1.40;1.20;;;;;;;30.00;35.18;100439.31;5050634;28;20686;-76
2022/07/14 10:23:09;;;;;;;2.97;1.30;;;;;;;30.26;34.24;100423.50;5050458;28;20202;-77
2022/07/14 10:25:36;;;;;;;3.47;1.50;;;;;;;30.41;33.33;100422.56;5032227;28;20225;-78
2022/07/14 10:28:03;;;;;;;1.30;1.20;;;;;;;30.50;31.84;100406.00;5050749;28;20205;-77
2022/07/14 10:30:36;;;;;;;4.05;1.63;;;;;;;31.03;33.88;100429.41;5050440;28;20199;-77
2022/07/14 10:33:08;;;;;;;1.63;1.42;;;;;;;31.01;33.94;100403.66;5050432;28;20202;-77
2022/07/14 10:35:54;;;;;;;1.17;1.17;;;;;;;30.97;30.89;100432.47;5050758;28;20223;-76
2022/07/14 10:38:35;;;;;;;2.83;0.90;;;;;;;31.10;29.18;100411.13;5050875;28;20602;-76
2022/07/14 10:41:10;;;;;;;1.60;0.90;;;;;;;31.29;30.16;100417.00;5050513;28;20218;-76
2022/07/14 10:43:58;;;;;;;1.05;1.05;;;;;;;31.35;29.50;100427.34;5050312;28;20194;-76
2022/07/14 10:46:36;;;;;;;1.08;1.00;;;;;;;31.34;29.01;100418.44;5050555;28;20204;-76
2022/07/14 10:49:04;;;;;;;1.00;1.00;;;;;;;31.24;28.58;100414.63;5050526;28;20199;-76
2022/07/14 10:51:33;;;;;;;0.90;0.90;;;;;;;31.32;28.34;100387.34;5050387;28;20591;-77
2022/07/14 10:54:05;;;;;;;4.72;1.85;;;;;;;31.40;28.58;100407.28;5049827;28;20730;-75
2022/07/14 10:56:33;;;;;;;1.33;1.23;;;;;;;30.67;31.69;100411.16;5050043;28;20205;-76
2022/07/14 10:59:30;;;;;;;21.73;1.67;;;;;;;31.13;31.46;100397.53;5050158;28;20249;-77
2022/07/14 11:02:36;;;;;;;3.40;1.08;;;;;;;30.75;31.40;100392.75;5008260;28;20295;-77
2022/07/14 11:05:11;;;;;;;2.33;1.27;;;;;;;30.69;31.61;100358.34;5008349;28;20200;-77
2022/07/14 11:07:47;;;;;;;1.23;1.23;;;;;;;31.03;31.64;100366.94;5008500;28;20490;-77
2022/07/14 11:11:05;;;;;;;1.45;1.17;;;;;;;31.37;30.94;100393.25;5008461;28;20212;-77
2022/07/14 11:13:32;;;;;;;4.85;1.40;;;;;;;30.79;30.77;100348.75;5008506;28;20192;-77
2022/07/14 11:16:02;;;;;;;1.85;0.95;;;;;;;31.28;30.02;100377.78;5016397;28;20220;-77
2022/07/14 11:18:34;;;;;;;4.65;1.40;;;;;;;31.48;30.41;100385.34;5018004;28;20235;-76
2022/07/14 11:21:06;;;;;;;4.93;1.25;;;;;;;31.54;29.42;100389.47;4991343;28;20208;-78
2022/07/14 11:23:36;;;;;;;1.10;1.10;;;;;;;31.34;27.21;100383.59;4988549;28;20870;-78
2022/07/14 11:26:05;;;;;;;3.15;1.40;;;;;;;31.14;26.50;100353.72;4988311;28;20271;-77
2022/07/14 11:28:41;;;;;;;2.20;2.00;;;;;;;31.37;27.04;100374.47;4955272;28;20288;-77
2022/07/14 11:31:13;;;;;;;1.17;1.17;;;;;;;31.46;28.17;100371.19;4955241;28;20204;-77
2022/07/14 11:36:24;;;;;;;4.85;1.00;;;;;;;31.47;28.37;100375.56;4991987;28;20296;-77
2022/07/14 11:39:22;;;;;;;1.92;1.60;;;;;;;31.62;28.61;100353.13;5010688;28;20207;-77
2022/07/14 11:41:50;;;;;;;2.55;1.30;;;;;;;31.67;27.71;100358.19;5034166;28;20725;-80
2022/07/14 11:44:45;;;;;;;1.42;1.33;;;;;;;31.73;27.63;100345.22;5034398;28;20200;-77